createdAt,value
2019-04-21T00:00:25.845Z,53.93
2019-04-21T00:02:55.421Z,45.63
2019-04-21T00:05:49.941Z,42.27
2019-04-21T00:08:21.392Z,49.17
2019-04-21T00:10:48.006Z,40.83
2019-04-21T00:13:08.057Z,43.70
2019-04-21T00:15:34.516Z,44.70
2019-04-21T00:18:03.880Z,57.17
2019-04-21T00:20:39.287Z,67.00
2019-04-21T00:23:19.882Z,68.40
2019-04-21T00:25:44.951Z,65.13
2019-04-21T00:28:28.993Z,60.37
2019-04-21T00:30:50.910Z,67.90
2019-04-21T00:33:09.195Z,66.33
2019-04-21T00:35:39.592Z,72.23
2019-04-21T00:38:25.044Z,73.27
2019-04-21T00:40:56.572Z,66.70
2019-04-21T00:43:21.878Z,80.00
2019-04-21T00:45:47.074Z,71.73
2019-04-21T00:48:23.633Z,83.73
2019-04-21T00:51:12.319Z,80.77
2019-04-21T00:53:44.127Z,73.80
2019-04-21T00:56:13.198Z,78.53
2019-04-21T00:58:37.163Z,76.60
2019-04-21T01:01:03.208Z,80.10
2019-04-21T01:03:40.163Z,86.57
2019-04-21T01:06:03.275Z,55.57
2019-04-21T01:08:35.615Z,65.80
2019-04-21T01:11:02.243Z,68.93
2019-04-21T01:13:44.048Z,68.57
2019-04-21T01:16:07.142Z,60.90
2019-04-21T01:18:34.176Z,59.10
2019-04-21T01:20:44.304Z,69.03
2019-04-21T01:23:12.775Z,65.70
2019-04-21T01:25:49.966Z,65.70
2019-04-21T01:28:29.076Z,78.87
2019-04-21T01:31:07.470Z,74.00
2019-04-21T01:33:42.939Z,79.50
2019-04-21T01:36:02.507Z,81.80
2019-04-21T01:38:34.380Z,68.20
2019-04-21T01:41:08.619Z,67.43
2019-04-21T01:43:34.970Z,70.87
2019-04-21T01:48:30.694Z,65.43
2019-04-21T01:51:25.022Z,79.57
2019-04-21T01:54:11.985Z,71.37
2019-04-21T01:57:03.400Z,63.47
2019-04-21T01:59:33.158Z,75.33
2019-04-21T02:02:06.203Z,66.97
2019-04-21T02:04:42.912Z,68.63
2019-04-21T02:07:13.087Z,66.27
2019-04-21T02:09:38.145Z,56.47
2019-04-21T02:12:13.387Z,71.90
2019-04-21T02:14:46.119Z,72.40
2019-04-21T02:17:13.319Z,76.20
2019-04-21T02:19:36.049Z,58.37
2019-04-21T02:22:04.576Z,56.23
2019-04-21T02:27:17.367Z,57.47
2019-04-21T02:29:47.148Z,58.03
2019-04-21T02:32:33.522Z,56.20
2019-04-21T02:35:04.027Z,57.27
2019-04-21T02:40:00.261Z,56.40
2019-04-21T02:42:23.827Z,55.83
2019-04-21T02:44:51.706Z,47.27
2019-04-21T02:47:40.618Z,51.03
2019-04-21T02:50:06.074Z,60.07
2019-04-21T02:52:30.923Z,55.07
2019-04-21T02:57:22.747Z,59.00
2019-04-21T03:02:56.980Z,65.63
2019-04-21T03:08:22.815Z,56.60
2019-04-21T03:10:43.363Z,75.33
2019-04-21T03:13:26.010Z,66.87
2019-04-21T03:15:53.353Z,74.00
2019-04-21T03:18:12.600Z,67.53
2019-04-21T03:20:49.080Z,63.97
2019-04-21T03:23:23.837Z,78.30
2019-04-21T03:28:14.205Z,76.07
2019-04-21T03:31:14.023Z,79.97
2019-04-21T03:36:12.886Z,86.13
2019-04-21T03:38:18.889Z,77.30
2019-04-21T03:40:39.918Z,86.53
2019-04-21T03:43:23.113Z,66.43
2019-04-21T03:45:42.434Z,63.07
2019-04-21T03:48:17.194Z,77.90
2019-04-21T03:53:20.854Z,58.70
2019-04-21T04:01:16.458Z,57.60
2019-04-21T04:09:49.028Z,70.77
2019-04-21T04:12:15.189Z,66.43
2019-04-21T04:22:15.148Z,64.30
2019-04-21T04:27:20.201Z,66.43
2019-04-21T04:29:44.587Z,71.67
2019-04-21T04:32:14.577Z,70.47
2019-04-21T04:34:49.815Z,69.67
2019-04-21T04:40:05.806Z,72.00
2019-04-21T04:42:41.328Z,66.27
2019-04-21T04:47:53.012Z,61.03
2019-04-21T04:50:26.296Z,64.10
2019-04-21T04:53:03.590Z,64.13
2019-04-21T04:57:46.985Z,62.53
2019-04-21T05:00:25.871Z,57.53
2019-04-21T05:02:52.421Z,57.17
2019-04-21T05:07:46.471Z,62.53
2019-04-21T05:15:10.076Z,67.73
2019-04-21T05:17:48.242Z,52.73
2019-04-21T05:20:18.573Z,67.20
2019-04-21T05:22:47.397Z,54.53
2019-04-21T05:24:58.410Z,56.13
2019-04-21T05:27:38.538Z,58.43
2019-04-21T05:30:33.957Z,54.60
2019-04-21T05:33:19.241Z,48.97
2019-04-21T05:36:11.461Z,38.10
2019-04-21T05:38:56.661Z,43.77
2019-04-21T05:41:22.117Z,39.57
2019-04-21T05:43:56.369Z,35.10
2019-04-21T05:46:32.356Z,41.70
2019-04-21T05:49:02.883Z,33.20
2019-04-21T05:51:31.789Z,28.53
2019-04-21T05:54:14.745Z,31.27
2019-04-21T05:56:36.029Z,37.20
2019-04-21T05:59:02.342Z,32.07
2019-04-21T06:01:42.033Z,30.60
2019-04-21T06:04:16.847Z,29.47
2019-04-21T06:06:40.796Z,33.63
2019-04-21T06:09:11.462Z,31.13
2019-04-21T06:11:36.316Z,27.80
2019-04-21T06:14:08.054Z,28.27
2019-04-21T06:16:45.115Z,34.00
2019-04-21T06:19:05.036Z,31.80
2019-04-21T06:21:39.482Z,37.27
2019-04-21T06:24:03.792Z,32.37
2019-04-21T06:29:08.655Z,31.40
2019-04-21T06:34:11.508Z,22.70
2019-04-21T06:37:07.797Z,30.47
2019-04-21T06:39:40.522Z,29.90
2019-04-21T06:42:03.670Z,20.97
2019-04-21T06:44:32.301Z,24.23
2019-04-21T06:47:06.405Z,20.27
2019-04-21T06:49:40.482Z,22.10
2019-04-21T06:52:20.696Z,26.63
2019-04-21T06:54:40.947Z,24.17
2019-04-21T06:57:08.756Z,22.50
2019-04-21T06:59:31.684Z,23.73
2019-04-21T07:02:29.018Z,18.50
2019-04-21T07:04:57.587Z,19.73
2019-04-21T07:07:08.044Z,16.93
2019-04-21T07:09:36.329Z,15.40
2019-04-21T07:12:06.156Z,17.73
2019-04-21T07:14:44.034Z,15.17
2019-04-21T07:17:16.032Z,18.60
2019-04-21T07:19:42.345Z,18.73
2019-04-21T07:22:14.596Z,20.03
2019-04-21T07:25:00.310Z,17.10
2019-04-21T07:27:11.768Z,17.80
2019-04-21T07:29:39.543Z,18.83
2019-04-21T07:32:12.174Z,21.70
2019-04-21T07:34:40.817Z,17.80
2019-04-21T07:37:06.548Z,23.83
2019-04-21T07:39:40.307Z,24.00
2019-04-21T07:42:05.719Z,20.80
2019-04-21T07:44:35.221Z,18.23
2019-04-21T07:47:11.549Z,17.00
2019-04-21T07:49:59.072Z,14.00
2019-04-21T07:52:28.939Z,14.60
2019-04-21T07:55:05.436Z,14.47
2019-04-21T07:57:23.527Z,14.30
2019-04-21T08:00:10.189Z,15.03
2019-04-21T08:02:29.409Z,16.30
2019-04-21T08:05:05.566Z,14.97
2019-04-21T08:07:32.369Z,14.37
2019-04-21T08:09:57.037Z,14.03
2019-04-21T08:12:24.184Z,16.90
2019-04-21T08:14:57.443Z,17.40
2019-04-21T08:17:30.289Z,19.30
2019-04-21T08:19:53.045Z,14.10
2019-04-21T08:22:32.093Z,19.53
2019-04-21T08:24:59.379Z,13.50
2019-04-21T08:27:35.137Z,14.37
2019-04-21T08:29:58.968Z,16.33
2019-04-21T08:32:40.946Z,14.80
2019-04-21T08:35:22.778Z,11.77
2019-04-21T08:37:34.162Z,12.93
2019-04-21T08:40:12.346Z,14.87
2019-04-21T08:42:35.214Z,12.90
2019-04-21T08:45:02.354Z,14.57
2019-04-21T08:47:37.502Z,14.57
2019-04-21T08:50:00.329Z,19.43
2019-04-21T08:52:42.773Z,14.27
2019-04-21T08:55:18.980Z,12.93
2019-04-21T09:01:04.800Z,15.33
2019-04-21T09:03:46.138Z,13.93
2019-04-21T09:06:13.678Z,13.30
2019-04-21T09:08:45.775Z,15.23
2019-04-21T09:11:14.955Z,12.50
2019-04-21T09:13:42.585Z,13.90
2019-04-21T09:16:08.530Z,13.70
2019-04-21T09:18:42.027Z,15.00
2019-04-21T09:21:21.880Z,14.10
2019-04-21T09:23:47.613Z,16.63
2019-04-21T09:26:20.109Z,13.70
2019-04-21T09:28:39.519Z,14.80
2019-04-21T09:31:00.911Z,11.27
2019-04-21T09:33:34.558Z,11.50
2019-04-21T09:36:02.561Z,13.37
2019-04-21T09:38:35.171Z,13.07
2019-04-21T09:40:58.342Z,16.73
2019-04-21T09:43:37.708Z,10.93
2019-04-21T09:45:58.876Z,10.43
2019-04-21T09:48:30.636Z,12.77
2019-04-21T09:50:57.446Z,15.63
2019-04-21T09:53:33.254Z,11.77
2019-04-21T09:55:59.820Z,11.53
2019-04-21T09:58:32.973Z,13.63
2019-04-21T10:01:05.173Z,11.23
2019-04-21T10:03:26.354Z,9.97
2019-04-21T10:05:54.833Z,12.93
2019-04-21T10:08:23.117Z,15.73
2019-04-21T10:10:51.267Z,7.37
2019-04-21T10:13:20.817Z,12.40
2019-04-21T10:16:01.427Z,10.50
2019-04-21T10:18:29.591Z,6.97
2019-04-21T10:20:58.960Z,9.17
2019-04-21T10:23:27.678Z,6.53
2019-04-21T10:25:56.831Z,10.97
2019-04-21T10:28:26.768Z,5.90
2019-04-21T10:30:56.520Z,7.13
2019-04-21T10:33:26.212Z,6.83
2019-04-21T10:35:55.165Z,7.63
2019-04-21T10:38:33.164Z,7.53
2019-04-21T10:40:53.737Z,6.50
2019-04-21T10:43:23.800Z,10.40
2019-04-21T10:45:52.830Z,6.30
2019-04-21T10:48:21.091Z,7.40
2019-04-21T10:50:49.456Z,4.67
2019-04-21T10:53:21.317Z,6.30
2019-04-21T10:56:04.510Z,5.20
2019-04-21T10:58:22.886Z,4.33
2019-04-21T11:00:55.672Z,7.20
2019-04-21T11:03:58.876Z,5.63
2019-04-21T11:06:28.600Z,6.73
2019-04-21T11:08:59.008Z,5.00
2019-04-21T11:11:27.962Z,4.17
2019-04-21T11:13:56.809Z,4.97
2019-04-21T11:16:25.267Z,4.37
2019-04-21T11:18:53.711Z,5.00
2019-04-21T11:21:22.917Z,5.33
2019-04-21T11:23:52.196Z,4.60
2019-04-21T11:26:21.986Z,5.50
2019-04-21T11:28:50.549Z,5.20
2019-04-21T11:31:18.908Z,3.93
2019-04-21T11:33:47.252Z,5.70
2019-04-21T11:36:15.656Z,5.03
2019-04-21T11:39:15.731Z,3.57
2019-04-21T11:41:34.004Z,4.20
2019-04-21T11:44:03.433Z,5.00
2019-04-21T11:46:32.538Z,3.90
2019-04-21T11:49:02.198Z,9.10
2019-04-21T11:51:31.014Z,6.03
2019-04-21T11:53:59.344Z,4.07
2019-04-21T11:56:27.646Z,4.10
2019-04-21T11:58:55.986Z,4.40
2019-04-21T12:01:25.604Z,5.83
2019-04-21T12:03:54.043Z,3.73
2019-04-21T12:06:28.591Z,6.03
2019-04-21T12:08:56.391Z,3.90
2019-04-21T12:11:23.316Z,5.37
2019-04-21T12:13:52.117Z,5.57
2019-04-21T12:16:21.099Z,4.63
2019-04-21T12:18:49.473Z,4.60
2019-04-21T12:21:18.919Z,4.37
2019-04-21T12:23:48.116Z,4.30
2019-04-21T12:26:18.028Z,6.63
2019-04-21T12:28:47.938Z,3.27
2019-04-21T12:31:33.737Z,6.03
2019-04-21T12:34:03.814Z,4.53
2019-04-21T12:36:33.723Z,4.93
2019-04-21T12:39:05.056Z,6.17
2019-04-21T12:41:32.869Z,4.70
2019-04-21T12:44:02.529Z,4.13
2019-04-21T12:46:31.842Z,3.43
2019-04-21T12:49:00.220Z,5.50
2019-04-21T12:51:28.485Z,3.20
2019-04-21T12:53:57.420Z,6.43
2019-04-21T12:56:27.445Z,3.70
2019-04-21T12:58:57.545Z,4.30
2019-04-21T13:01:27.281Z,3.00
2019-04-21T13:03:57.453Z,5.70
2019-04-21T13:06:27.645Z,3.70
2019-04-21T13:09:03.420Z,2.83
2019-04-21T13:11:26.723Z,3.83
2019-04-21T13:13:55.720Z,5.10
2019-04-21T13:16:25.342Z,3.47
2019-04-21T13:18:53.725Z,3.77
2019-04-21T13:21:22.438Z,4.57
2019-04-21T13:23:50.753Z,2.90
2019-04-21T13:26:29.650Z,2.90
2019-04-21T13:28:50.095Z,3.03
2019-04-21T13:31:18.390Z,3.10
2019-04-21T13:33:48.004Z,3.93
2019-04-21T13:36:18.000Z,5.00
2019-04-21T13:39:39.614Z,3.27
2019-04-21T13:41:54.484Z,3.13
2019-04-21T13:44:15.514Z,4.50
2019-04-21T13:46:45.018Z,4.37
2019-04-21T13:49:13.972Z,2.93
2019-04-21T13:51:43.845Z,5.23
2019-04-21T13:54:13.922Z,3.60
2019-04-21T13:56:42.632Z,3.50
2019-04-21T13:59:10.970Z,2.80
2019-04-21T14:01:39.540Z,3.23
2019-04-21T14:04:09.403Z,5.43
2019-04-21T14:06:38.639Z,4.13
2019-04-21T14:09:10.062Z,3.00
2019-04-21T14:11:38.529Z,3.10
2019-04-21T14:14:08.272Z,3.63
2019-04-21T14:16:36.586Z,4.23
2019-04-21T14:19:05.632Z,2.60
2019-04-21T14:21:34.158Z,3.63
2019-04-21T14:24:02.421Z,4.83
2019-04-21T14:26:30.573Z,4.77
2019-04-21T14:28:59.285Z,3.20
2019-04-21T14:31:28.404Z,3.33
2019-04-21T14:33:58.089Z,2.70
2019-04-21T14:36:28.559Z,5.80
2019-04-21T14:38:56.941Z,2.90
2019-04-21T14:41:26.259Z,4.90
2019-04-21T14:43:55.107Z,3.77
2019-04-21T14:46:39.443Z,4.23
2019-04-21T14:49:23.524Z,4.30
2019-04-21T14:51:56.860Z,4.53
2019-04-21T14:54:44.649Z,4.83
2019-04-21T14:57:13.570Z,3.87
2019-04-21T14:59:42.822Z,2.93
2019-04-21T15:02:16.062Z,7.27
2019-04-21T15:04:45.836Z,6.10
2019-04-21T15:07:14.993Z,3.43
2019-04-21T15:09:44.672Z,78.17
2019-04-21T15:12:16.209Z,6.30
2019-04-21T15:14:44.582Z,5.63
2019-04-21T15:17:15.917Z,2.83
2019-04-21T15:19:52.248Z,4.90
2019-04-21T15:22:14.508Z,2.87
2019-04-21T15:24:42.831Z,5.37
2019-04-21T15:27:12.771Z,3.60
2019-04-21T15:29:41.059Z,3.43
2019-04-21T15:32:10.486Z,5.83
2019-04-21T15:34:40.170Z,5.10
2019-04-21T15:37:08.532Z,3.27
2019-04-21T15:39:38.327Z,51.00
2019-04-21T15:42:06.809Z,30.47
2019-04-21T15:44:36.492Z,69.13
2019-04-21T15:47:06.093Z,337.03
2019-04-21T15:50:02.958Z,151.10
2019-04-21T15:52:27.748Z,429.47
2019-04-21T15:55:05.761Z,46.60
2019-04-21T15:57:42.643Z,252.20
2019-04-21T16:00:20.714Z,21.57
2019-04-21T16:02:49.036Z,8.03
2019-04-21T16:05:19.057Z,4.27
2019-04-21T16:07:47.971Z,3.70
2019-04-21T16:10:29.970Z,30.27
2019-04-21T16:12:47.552Z,108.20
2019-04-21T16:15:16.762Z,71.93
2019-04-21T16:17:45.698Z,15.73
2019-04-21T16:20:15.484Z,44.50
2019-04-21T16:22:44.508Z,186.73
2019-04-21T16:25:14.820Z,58.47
2019-04-21T16:27:43.519Z,11.90
2019-04-21T16:30:15.611Z,3.77
2019-04-21T16:32:44.056Z,2.73
2019-04-21T16:35:14.578Z,4.03
2019-04-21T16:37:43.654Z,2.80
2019-04-21T16:40:13.695Z,2.83
2019-04-21T16:42:42.564Z,3.23
2019-04-21T16:45:12.675Z,3.77
2019-04-21T16:47:42.124Z,3.17
2019-04-21T16:50:11.830Z,2.57
2019-04-21T16:52:54.122Z,6.27
2019-04-21T16:55:37.153Z,3.73
2019-04-21T16:58:26.881Z,2.47
2019-04-21T17:01:05.113Z,5.57
2019-04-21T17:03:30.651Z,5.93
2019-04-21T17:06:00.490Z,5.90
2019-04-21T17:08:29.171Z,6.27
2019-04-21T17:11:09.551Z,3.03
2019-04-21T17:13:27.379Z,5.37
2019-04-21T17:16:16.852Z,14.27
2019-04-21T17:18:43.240Z,13.83
2019-04-21T17:21:01.043Z,5.50
2019-04-21T17:23:27.332Z,4.03
2019-04-21T17:25:57.097Z,4.37
2019-04-21T17:28:25.789Z,4.07
2019-04-21T17:30:54.624Z,5.77
2019-04-21T17:33:27.891Z,6.30
2019-04-21T17:35:53.271Z,4.40
2019-04-21T17:38:21.850Z,6.10
2019-04-21T17:40:51.691Z,3.73
2019-04-21T17:43:21.658Z,9.33
2019-04-21T17:45:51.053Z,3.90
2019-04-21T17:48:20.207Z,4.43
2019-04-21T17:51:01.297Z,6.00
2019-04-21T17:53:52.004Z,8.53
2019-04-21T17:56:47.831Z,5.93
2019-04-21T17:59:09.572Z,7.77
2019-04-21T18:01:41.982Z,6.00
2019-04-21T18:04:15.485Z,43.47
2019-04-21T18:07:02.371Z,7.13
2019-04-21T18:09:44.051Z,3.93
2019-04-21T18:12:07.767Z,6.30
2019-04-21T18:14:22.134Z,6.30
2019-04-21T18:16:53.321Z,7.30
2019-04-21T18:19:26.135Z,10.60
2019-04-21T18:22:17.475Z,8.47
2019-04-21T18:24:55.767Z,15.60
2019-04-21T18:27:17.635Z,16.43
2019-04-21T18:29:48.346Z,13.17
2019-04-21T18:32:24.786Z,17.17
2019-04-21T18:35:14.043Z,19.83
2019-04-21T18:38:08.097Z,10.77
2019-04-21T18:40:36.439Z,5.83
2019-04-21T18:43:43.720Z,8.90
2019-04-21T18:48:27.419Z,11.77
2019-04-21T18:51:10.331Z,16.77
2019-04-21T18:54:14.851Z,10.77
2019-04-21T18:56:23.690Z,12.63
2019-04-21T18:58:52.275Z,9.00
2019-04-21T19:01:27.267Z,12.07
2019-04-21T19:03:55.638Z,16.57
2019-04-21T19:06:40.509Z,15.20
2019-04-21T19:09:11.325Z,23.20
2019-04-21T19:11:32.874Z,23.63
2019-04-21T19:16:59.048Z,27.23
2019-04-21T19:21:55.818Z,42.67
2019-04-21T19:24:41.295Z,44.40
2019-04-21T19:31:57.741Z,50.63
2019-04-21T19:34:14.280Z,46.20
2019-04-21T19:36:45.534Z,46.87
2019-04-21T19:39:16.269Z,39.13
2019-04-21T19:41:51.962Z,40.53
2019-04-21T19:44:26.188Z,39.27
2019-04-21T19:47:01.345Z,38.37
2019-04-21T19:49:33.528Z,44.57
2019-04-21T19:51:51.554Z,42.90
2019-04-21T19:54:22.111Z,50.90
2019-04-21T19:56:40.965Z,44.40
2019-04-21T19:59:11.872Z,50.47
2019-04-21T20:01:39.440Z,43.83
2019-04-21T20:04:08.461Z,35.83
2019-04-21T20:06:47.519Z,40.73
2019-04-21T20:09:28.114Z,43.03
2019-04-21T20:11:53.542Z,39.60
2019-04-21T20:16:53.124Z,31.57
2019-04-21T20:19:12.631Z,25.10
2019-04-21T20:21:42.994Z,24.13
2019-04-21T20:24:16.463Z,20.53
2019-04-21T20:26:52.074Z,15.80
2019-04-21T20:29:31.339Z,15.27
2019-04-21T20:31:54.279Z,11.10
2019-04-21T20:34:33.784Z,12.63
2019-04-21T20:37:02.176Z,13.83
2019-04-21T20:39:21.264Z,11.80
2019-04-21T20:41:56.256Z,11.13
2019-04-21T20:44:29.820Z,16.00
2019-04-21T20:46:59.834Z,10.60
2019-04-21T20:49:27.076Z,10.87
2019-04-21T20:52:12.338Z,9.13
2019-04-21T20:54:30.236Z,16.97
2019-04-21T21:03:46.385Z,10.97
2019-04-21T21:06:08.319Z,9.30
2019-04-21T21:08:40.054Z,10.73
2019-04-21T21:11:07.052Z,8.03
2019-04-21T21:13:44.980Z,6.70
2019-04-21T21:21:15.147Z,7.90
2019-04-21T21:23:48.014Z,7.30
2019-04-21T21:26:21.925Z,11.07
2019-04-21T21:28:46.081Z,10.63
2019-04-21T21:31:17.609Z,9.50
2019-04-21T21:33:59.253Z,9.77
2019-04-21T21:36:19.662Z,6.67
2019-04-21T21:38:53.004Z,7.33
2019-04-21T21:41:13.833Z,7.70
2019-04-21T21:43:33.115Z,5.67
2019-04-21T21:46:11.002Z,7.97
2019-04-21T21:48:49.199Z,7.67
2019-04-21T21:51:10.780Z,7.07
2019-04-21T21:53:34.721Z,9.07
2019-04-21T21:56:02.827Z,7.57
2019-04-21T21:58:36.600Z,9.37
2019-04-21T22:01:06.037Z,7.53
2019-04-21T22:03:38.050Z,7.13
2019-04-21T22:06:09.929Z,7.57
2019-04-21T22:08:34.468Z,8.63
2019-04-21T22:11:03.369Z,11.40
2019-04-21T22:13:38.526Z,8.27
2019-04-21T22:16:06.966Z,8.20
2019-04-21T22:18:52.289Z,7.93
2019-04-21T22:21:12.779Z,8.67
2019-04-21T22:23:43.817Z,9.03
2019-04-21T22:26:03.147Z,10.57
2019-04-21T22:28:31.610Z,7.53
2019-04-21T22:31:01.105Z,14.30
2019-04-21T22:33:33.291Z,10.37
2019-04-21T22:36:09.934Z,9.47
2019-04-21T22:38:43.390Z,10.77
2019-04-21T22:41:10.635Z,10.00
2019-04-21T22:43:36.481Z,8.43
2019-04-21T22:46:01.231Z,8.90
2019-04-21T22:48:30.657Z,9.73
2019-04-21T22:51:00.477Z,11.93
2019-04-21T22:53:40.491Z,10.23
2019-04-21T22:56:10.170Z,11.57
2019-04-21T22:58:33.982Z,10.23
2019-04-21T23:01:01.895Z,9.20
2019-04-21T23:03:30.785Z,9.77
2019-04-21T23:06:07.471Z,13.00
2019-04-21T23:08:36.375Z,10.93
2019-04-21T23:11:04.988Z,9.83
2019-04-21T23:13:32.731Z,9.80
2019-04-21T23:16:04.165Z,10.70
2019-04-21T23:18:46.394Z,11.73
2019-04-21T23:21:16.301Z,10.77
2019-04-21T23:23:54.104Z,12.00
2019-04-21T23:26:21.968Z,10.10
2019-04-21T23:28:50.775Z,12.37
2019-04-21T23:31:26.767Z,11.37
2019-04-21T23:33:34.452Z,12.00
2019-04-21T23:36:12.966Z,11.20
2019-04-21T23:38:41.758Z,10.53
2019-04-21T23:41:07.093Z,9.87
2019-04-21T23:43:35.448Z,9.00
2019-04-21T23:46:13.241Z,11.47
2019-04-21T23:48:48.820Z,11.50
2019-04-21T23:51:15.879Z,13.57
2019-04-21T23:53:35.393Z,11.03
2019-04-21T23:56:03.649Z,12.00
2019-04-21T23:58:34.741Z,10.63
